Time;durP1;ratioP1;P1;durP2;ratioP2;P2;SDS_P1;SDS_P2;PMS_P1;PMS_P2;Temp;Humidity;BMP_temperature;BMP_pressure;BME280_temperature;BME280_humidity;BME280_pressure;Samples;Min_cycle;Max_cycle;Signal;HPM_P1;HPM_P2
2021/10/25 00:01:29;;;;;;;8.20;4.70;;;6.90;92.20;;;;;;5013013;28;20228;-59
2021/10/25 00:03:56;;;;;;;8.37;5.07;;;6.90;83.50;;;;;;5013012;28;20227;-57
2021/10/25 00:06:23;;;;;;;8.87;5.00;;;6.80;74.90;;;;;;5012906;28;20206;-59
2021/10/25 00:08:51;;;;;;;7.07;4.93;;;6.80;83.00;;;;;;5013106;28;20211;-58
2021/10/25 00:11:18;;;;;;;6.37;4.63;;;6.70;99.90;;;;;;5013121;28;20293;-58
2021/10/25 00:13:44;;;;;;;8.13;4.73;;;6.80;99.90;;;;;;5012879;28;20217;-59
2021/10/25 00:16:11;;;;;;;7.60;4.80;;;6.70;99.90;;;;;;5012574;28;20713;-57
2021/10/25 00:18:38;;;;;;;9.20;4.80;;;6.70;99.90;;;;;;5013038;28;20253;-56
2021/10/25 00:21:05;;;;;;;9.23;5.17;;;6.70;99.90;;;;;;5013058;28;20235;-59
2021/10/25 00:23:31;;;;;;;7.97;4.40;;;6.60;99.90;;;;;;5012640;28;20223;-58
2021/10/25 00:26:00;;;;;;;6.53;4.80;;;6.60;99.90;;;;;;5011935;28;20211;-59
2021/10/25 00:28:27;;;;;;;8.60;4.53;;;6.60;99.90;;;;;;5012634;28;20215;-59
2021/10/25 00:30:54;;;;;;;8.90;4.70;;;6.60;99.90;;;;;;5012690;28;20242;-58
2021/10/25 00:33:20;;;;;;;5.27;4.10;;;6.50;99.90;;;;;;5012689;28;20742;-62
2021/10/25 00:35:47;;;;;;;7.60;4.37;;;6.50;99.90;;;;;;5012360;28;20207;-59
2021/10/25 00:38:14;;;;;;;7.97;5.10;;;6.50;99.90;;;;;;5012452;28;20293;-59
2021/10/25 00:40:41;;;;;;;6.93;4.50;;;6.50;99.90;;;;;;5012576;28;20314;-61
2021/10/25 00:43:09;;;;;;;5.57;4.13;;;6.40;99.90;;;;;;5012352;28;20210;-61
2021/10/25 00:45:36;;;;;;;7.90;4.50;;;6.50;99.90;;;;;;5012332;28;20250;-58
2021/10/25 00:48:03;;;;;;;6.33;4.23;;;6.50;99.90;;;;;;5012495;28;20265;-60
2021/10/25 00:50:30;;;;;;;7.33;4.33;;;6.50;99.90;;;;;;5012529;28;20245;-62
2021/10/25 00:52:56;;;;;;;7.53;4.50;;;6.60;99.90;;;;;;5012291;28;20264;-62
2021/10/25 00:55:23;;;;;;;7.50;4.10;;;6.60;99.90;;;;;;5011961;28;20203;-59
2021/10/25 00:57:50;;;;;;;7.83;4.60;;;6.60;99.90;;;;;;5012257;28;20211;-59
2021/10/25 01:00:18;;;;;;;7.07;4.50;;;6.70;99.90;;;;;;5012505;28;20202;-61
2021/10/25 01:02:45;;;;;;;6.53;4.37;;;6.60;99.90;;;;;;5012339;28;20243;-61
2021/10/25 01:05:12;;;;;;;6.97;4.17;;;6.60;99.90;;;;;;5012133;28;20227;-60
2021/10/25 01:07:41;;;;;;;6.13;4.00;;;6.70;99.90;;;;;;5012278;28;20206;-59
2021/10/25 01:10:08;;;;;;;7.60;4.47;;;6.70;99.90;;;;;;5012208;28;20688;-60
2021/10/25 01:12:36;;;;;;;6.27;4.00;;;6.80;99.90;;;;;;5012487;28;20231;-61
2021/10/25 01:15:04;;;;;;;8.73;4.13;;;6.90;99.90;;;;;;5011707;28;20233;-60
2021/10/25 01:17:32;;;;;;;6.47;3.83;;;6.90;99.90;;;;;;5012345;28;20211;-58
2021/10/25 01:20:00;;;;;;;6.57;4.23;;;6.90;99.90;;;;;;5012396;28;20214;-58
2021/10/25 01:22:27;;;;;;;8.43;4.47;;;6.90;99.90;;;;;;5012451;28;20231;-61
2021/10/25 01:24:55;;;;;;;4.87;4.13;;;6.90;99.90;;;;;;5012043;28;20281;-61
2021/10/25 01:27:23;;;;;;;5.70;3.97;;;7.00;99.90;;;;;;5012577;28;20230;-62
2021/10/25 01:29:49;;;;;;;5.23;4.13;;;7.00;99.90;;;;;;5012328;28;20206;-59
2021/10/25 01:32:16;;;;;;;5.47;4.17;;;7.00;99.90;;;;;;5011966;28;20237;-57
2021/10/25 01:34:43;;;;;;;6.47;4.47;;;7.00;98.30;;;;;;5011923;28;20750;-58
2021/10/25 01:37:11;;;;;;;6.60;3.97;;;7.10;94.40;;;;;;5016074;28;20229;-60
2021/10/25 01:39:38;;;;;;;7.40;4.20;;;7.10;76.20;;;;;;5016395;28;20238;-61
2021/10/25 01:42:06;;;;;;;6.23;4.20;;;7.10;55.90;;;;;;5015844;28;20238;-61
2021/10/25 01:44:33;;;;;;;6.10;4.27;;;7.10;44.50;;;;;;5015340;28;20226;-61
2021/10/25 01:47:00;;;;;;;7.60;4.17;;;7.20;42.60;;;;;;5015775;28;20245;-61
2021/10/25 01:49:27;;;;;;;6.33;3.97;;;7.20;31.90;;;;;;5015602;28;20610;-62
2021/10/25 01:51:54;;;;;;;5.80;4.53;;;7.20;23.30;;;;;;5015445;28;20222;-60
2021/10/25 01:54:22;;;;;;;6.97;3.77;;;7.20;12.40;;;;;;5015683;28;20623;-60
2021/10/25 01:56:49;;;;;;;8.17;4.33;;;7.20;3.00;;;;;;5015491;28;20241;-62
2021/10/25 01:59:16;;;;;;;6.00;4.37;;;7.30;1.00;;;;;;5015496;28;20276;-61
2021/10/25 02:01:42;;;;;;;5.73;3.80;;;7.30;1.00;;;;;;5015264;28;20712;-62
2021/10/25 02:04:09;;;;;;;6.57;4.27;;;7.30;1.00;;;;;;5015338;28;20223;-61
2021/10/25 02:06:36;;;;;;;6.60;4.23;;;7.20;1.00;;;;;;5014775;28;20249;-61
2021/10/25 02:09:04;;;;;;;7.47;4.50;;;7.20;1.00;;;;;;5015307;28;20207;-62
2021/10/25 02:11:32;;;;;;;6.57;4.50;;;7.20;1.00;;;;;;5015260;28;20227;-59
2021/10/25 02:13:59;;;;;;;7.73;4.30;;;7.20;14.20;;;;;;5015381;28;20257;-62
2021/10/25 02:16:26;;;;;;;6.23;4.30;;;7.10;2.90;;;;;;5014621;28;20750;-61
2021/10/25 02:18:53;;;;;;;7.43;4.87;;;7.10;3.40;;;;;;5015005;28;20672;-61
2021/10/25 02:21:20;;;;;;;8.37;4.10;;;7.10;4.90;;;;;;5015083;28;20288;-61
2021/10/25 02:23:46;;;;;;;5.57;4.40;;;7.00;19.80;;;;;;5014892;28;20211;-60
2021/10/25 02:26:13;;;;;;;7.53;4.63;;;7.00;33.80;;;;;;5014771;28;20217;-61
2021/10/25 02:28:43;;;;;;;6.70;4.60;;;7.00;59.80;;;;;;5014944;28;20210;-61
2021/10/25 02:31:11;;;;;;;7.87;4.33;;;7.00;72.70;;;;;;5014775;28;20230;-61
2021/10/25 02:33:38;;;;;;;6.00;4.53;;;7.00;86.60;;;;;;5014710;28;20211;-61
2021/10/25 02:36:07;;;;;;;7.23;4.53;;;7.00;87.70;;;;;;5014605;28;20203;-59
2021/10/25 02:38:34;;;;;;;6.13;4.40;;;7.00;99.90;;;;;;5014957;28;20222;-62
2021/10/25 02:41:00;;;;;;;8.40;4.17;;;7.00;96.60;;;;;;5014825;28;20231;-61
2021/10/25 02:43:27;;;;;;;8.33;4.30;;;7.00;93.10;;;;;;5014791;28;20211;-60
2021/10/25 02:45:57;;;;;;;9.03;4.47;;;7.00;84.60;;;;;;5013894;28;20601;-59
2021/10/25 02:48:25;;;;;;;7.47;4.53;;;7.00;89.70;;;;;;5013636;28;20227;-60
2021/10/25 02:50:52;;;;;;;6.63;4.77;;;7.00;92.70;;;;;;5014583;28;20231;-61
2021/10/25 02:53:19;;;;;;;7.30;4.40;;;7.00;92.20;;;;;;5014631;28;20289;-61
2021/10/25 02:55:47;;;;;;;7.83;4.37;;;7.00;99.90;;;;;;5014132;28;20213;-60
2021/10/25 02:58:14;;;;;;;6.70;4.60;;;7.00;99.90;;;;;;5014529;28;20210;-61
2021/10/25 03:00:41;;;;;;;6.17;4.33;;;7.00;99.90;;;;;;5013926;28;20210;-61
2021/10/25 03:03:09;;;;;;;6.27;4.20;;;7.00;99.90;;;;;;5014187;28;20676;-61
2021/10/25 03:05:37;;;;;;;8.47;4.60;;;7.00;99.90;;;;;;5014037;28;20418;-59
2021/10/25 03:08:04;;;;;;;7.07;3.90;;;7.00;99.10;;;;;;5014337;28;20253;-59
2021/10/25 03:10:30;;;;;;;9.20;4.50;;;7.00;99.80;;;;;;5014135;28;20265;-60
2021/10/25 03:12:57;;;;;;;6.43;4.57;;;7.00;96.70;;;;;;5014125;28;20215;-61
2021/10/25 03:15:24;;;;;;;9.90;4.47;;;7.00;95.10;;;;;;5013823;28;20207;-60
2021/10/25 03:17:50;;;;;;;7.30;4.63;;;7.00;99.90;;;;;;5014134;28;20617;-62
2021/10/25 03:20:18;;;;;;;7.80;4.50;;;7.00;97.80;;;;;;5013891;28;20265;-62
2021/10/25 03:22:45;;;;;;;6.70;4.30;;;7.00;99.00;;;;;;5013870;28;20227;-57
2021/10/25 03:25:13;;;;;;;6.97;4.30;;;7.00;99.90;;;;;;5013623;28;20227;-59
2021/10/25 03:27:40;;;;;;;7.77;3.90;;;7.00;99.90;;;;;;5013733;28;20245;-61
2021/10/25 03:30:08;;;;;;;5.40;3.77;;;7.00;99.90;;;;;;5013807;28;20365;-59
2021/10/25 03:32:35;;;;;;;7.17;4.30;;;7.00;99.90;;;;;;5013758;28;20608;-61
2021/10/25 03:35:02;;;;;;;9.47;4.43;;;7.00;99.90;;;;;;5013225;28;20737;-61
2021/10/25 03:37:32;;;;;;;7.97;4.13;;;7.00;99.90;;;;;;5013725;28;20211;-59
2021/10/25 03:40:00;;;;;;;6.70;4.00;;;7.00;99.90;;;;;;5013517;28;20214;-62
2021/10/25 03:42:29;;;;;;;7.73;3.90;;;7.10;99.90;;;;;;5013467;28;20262;-61
2021/10/25 03:45:03;;;;;;;5.80;4.10;;;7.10;99.90;;;;;;5013075;28;20238;-61
2021/10/25 03:47:34;;;;;;;6.53;4.20;;;7.10;95.30;;;;;;5013583;28;20206;-61
2021/10/25 03:50:07;;;;;;;9.80;4.00;;;7.20;91.70;;;;;;5013584;28;20207;-61
2021/10/25 03:52:40;;;;;;;8.20;4.90;;;7.20;57.40;;;;;;5013051;28;20231;-59
2021/10/25 03:55:12;;;;;;;5.10;4.00;;;7.20;30.80;;;;;;5013241;28;20238;-61
2021/10/25 03:58:05;;;;;;;6.23;4.17;;;7.10;29.40;;;;;;5013347;28;20217;-61
2021/10/25 04:27:59;;;;;;;10.20;4.40;;;6.80;99.90;;;;;;4998482;28;20248;-63
2021/10/25 04:30:30;;;;;;;6.50;4.30;;;6.80;99.90;;;;;;5032074;28;20215;-63
2021/10/25 04:32:57;;;;;;;5.37;4.27;;;6.80;99.90;;;;;;5025650;28;20242;-63
2021/10/25 04:35:24;;;;;;;6.93;4.33;;;6.80;99.90;;;;;;5011977;28;20203;-62
2021/10/25 04:37:51;;;;;;;9.40;5.10;;;6.70;99.90;;;;;;5012456;28;20227;-63
2021/10/25 04:40:19;;;;;;;9.20;4.43;;;6.70;99.90;;;;;;5012329;28;20567;-63
2021/10/25 04:42:46;;;;;;;7.10;4.20;;;6.70;99.90;;;;;;5011870;28;20231;-63
2021/10/25 04:45:14;;;;;;;10.17;4.20;;;6.60;99.90;;;;;;5011984;28;20608;-63
2021/10/25 04:47:41;;;;;;;6.70;4.10;;;6.70;99.90;;;;;;5012362;28;20214;-63
2021/10/25 04:50:08;;;;;;;6.07;4.37;;;6.70;99.90;;;;;;5012225;28;20214;-63
2021/10/25 04:52:35;;;;;;;5.77;4.40;;;6.70;99.90;;;;;;5012149;28;20233;-61
2021/10/25 04:55:01;;;;;;;8.57;4.73;;;6.60;99.90;;;;;;5011691;28;20203;-63
2021/10/25 04:57:30;;;;;;;8.87;4.50;;;6.60;99.90;;;;;;5012286;28;20695;-62
2021/10/25 04:59:57;;;;;;;6.13;4.43;;;6.60;99.90;;;;;;5011975;28;20680;-60
2021/10/25 05:02:24;;;;;;;9.33;4.60;;;6.60;99.90;;;;;;5012163;28;20243;-61
2021/10/25 05:04:51;;;;;;;6.20;4.80;;;6.60;99.90;;;;;;5011687;28;20234;-61
2021/10/25 05:07:19;;;;;;;6.80;3.93;;;6.60;99.90;;;;;;5011956;28;20210;-62
2021/10/25 05:09:45;;;;;;;7.73;4.23;;;6.60;99.90;;;;;;5011380;28;20301;-62
2021/10/25 05:12:14;;;;;;;6.70;3.93;;;6.60;1.00;;;;;;5011920;28;20237;-63
2021/10/25 05:14:42;;;;;;;6.07;4.33;;;6.60;99.90;;;;;;5011830;28;20207;-62
2021/10/25 05:17:09;;;;;;;7.37;4.50;;;6.60;99.90;;;;;;5012098;28;20642;-64
2021/10/25 05:19:35;;;;;;;7.53;4.50;;;6.60;99.90;;;;;;5011201;28;20208;-62
2021/10/25 05:22:02;;;;;;;7.20;4.57;;;6.50;99.90;;;;;;5011620;28;20234;-62
2021/10/25 05:24:29;;;;;;;6.37;4.30;;;6.50;99.90;;;;;;5011853;28;20211;-60
2021/10/25 05:26:56;;;;;;;6.00;4.10;;;6.40;1.00;;;;;;5003654;28;20675;-62
2021/10/25 05:29:22;;;;;;;7.03;4.50;;;6.40;1.00;;;;;;5010992;28;20203;-62
2021/10/25 05:31:50;;;;;;;9.17;4.37;;;6.40;1.00;;;;;;5011367;28;20226;-59
2021/10/25 05:34:17;;;;;;;8.13;4.40;;;6.50;1.00;;;;;;5011279;28;20207;-63
2021/10/25 05:36:44;;;;;;;9.47;4.17;;;6.50;1.00;;;;;;5010763;28;20203;-65
2021/10/25 05:39:10;;;;;;;7.13;4.40;;;6.50;99.90;;;;;;5011465;28;20241;-63
2021/10/25 05:41:38;;;;;;;5.03;4.23;;;6.40;99.90;;;;;;5011624;28;20318;-62
2021/10/25 05:44:05;;;;;;;7.00;4.03;;;6.40;99.90;;;;;;5010199;28;20210;-62
2021/10/25 05:46:32;;;;;;;5.70;4.40;;;6.40;99.90;;;;;;5011041;28;20262;-61
2021/10/25 05:49:00;;;;;;;7.87;4.93;;;6.40;99.90;;;;;;5010865;28;20211;-63
2021/10/25 05:51:27;;;;;;;9.30;4.97;;;6.30;99.90;;;;;;5010490;28;20235;-63
2021/10/25 05:53:54;;;;;;;8.23;4.73;;;6.20;99.90;;;;;;5011522;28;20203;-63
2021/10/25 05:56:21;;;;;;;9.27;5.33;;;6.10;99.90;;;;;;5010733;28;20265;-63
2021/10/25 05:58:49;;;;;;;9.23;5.40;;;6.10;1.00;;;;;;5011536;28;20790;-63
2021/10/25 06:01:17;;;;;;;8.67;5.53;;;6.10;1.00;;;;;;5011217;28;20235;-58
2021/10/25 06:03:47;;;;;;;6.70;5.00;;;6.10;1.00;;;;;;5011284;28;20214;-61
2021/10/25 06:06:15;;;;;;;7.43;5.27;;;6.10;1.00;;;;;;5010496;28;20576;-62
2021/10/25 06:08:42;;;;;;;7.73;5.57;;;6.10;1.00;;;;;;5011183;28;20218;-63
2021/10/25 06:11:09;;;;;;;9.00;5.50;;;6.10;1.00;;;;;;5011506;28;20227;-62
2021/10/25 06:13:38;;;;;;;7.47;5.07;;;6.10;1.00;;;;;;5011069;28;20222;-62
2021/10/25 06:16:11;;;;;;;8.13;5.17;;;6.10;1.00;;;;;;5010730;28;20210;-64
2021/10/25 06:18:37;;;;;;;7.03;4.87;;;6.10;1.00;;;;;;5010906;28;20215;-61
2021/10/25 06:21:05;;;;;;;6.70;4.70;;;6.10;23.20;;;;;;5011422;28;20231;-62
2021/10/25 06:23:34;;;;;;;10.73;5.30;;;5.90;99.90;;;;;;5013167;28;20576;-60
2021/10/25 06:26:01;;;;;;;8.40;4.70;;;6.00;99.90;;;;;;5013910;28;20699;-61
2021/10/25 06:28:28;;;;;;;7.20;4.57;;;5.90;99.90;;;;;;5014712;28;20210;-62
2021/10/25 06:31:00;;;;;;;6.27;4.20;;;6.00;99.90;;;;;;5014230;28;20515;-63
2021/10/25 06:33:27;;;;;;;6.70;5.07;;;5.90;99.90;;;;;;5014543;28;20764;-59
2021/10/25 06:36:02;;;;;;;10.33;4.90;;;5.90;99.90;;;;;;5014018;28;20264;-62
2021/10/25 06:38:33;;;;;;;10.57;4.87;;;5.80;99.90;;;;;;5014852;28;20210;-64
2021/10/25 06:41:01;;;;;;;6.97;5.00;;;5.90;99.90;;;;;;5014241;28;20234;-65
2021/10/25 06:43:29;;;;;;;7.40;5.30;;;5.80;1.00;;;;;;5013860;28;20215;-64
2021/10/25 06:45:56;;;;;;;7.33;5.00;;;5.80;1.00;;;;;;5013849;28;20716;-63
2021/10/25 06:48:23;;;;;;;7.27;4.80;;;5.90;25.10;;;;;;5014065;28;20211;-61
2021/10/25 06:50:51;;;;;;;8.53;5.50;;;5.80;39.00;;;;;;5014203;28;20237;-61
2021/10/25 06:53:18;;;;;;;6.93;4.97;;;5.90;99.90;;;;;;5013960;28;20213;-61
2021/10/25 06:55:45;;;;;;;11.30;5.67;;;5.90;86.10;;;;;;5013499;28;20211;-63
2021/10/25 06:58:13;;;;;;;10.37;5.17;;;6.00;41.30;;;;;;5013721;28;20221;-61
2021/10/25 07:00:40;;;;;;;7.43;5.53;;;6.00;1.00;;;;;;5014101;28;20308;-62
2021/10/25 07:03:07;;;;;;;8.60;5.10;;;6.10;1.00;;;;;;5013958;28;20241;-62
2021/10/25 07:05:36;;;;;;;8.67;5.37;;;6.10;1.00;;;;;;5013350;28;20281;-61
2021/10/25 07:08:03;;;;;;;7.80;4.80;;;6.10;1.00;;;;;;5013609;28;20225;-62
2021/10/25 07:10:30;;;;;;;7.67;4.80;;;6.10;99.90;;;;;;5013247;28;20215;-62
2021/10/25 07:12:58;;;;;;;7.73;4.50;;;6.10;99.90;;;;;;5013810;28;20680;-62
2021/10/25 07:15:27;;;;;;;5.87;3.93;;;6.20;99.90;;;;;;5013273;28;20210;-62
2021/10/25 07:17:58;;;;;;;7.17;4.37;;;6.30;99.90;;;;;;5013513;28;20341;-62
2021/10/25 07:20:38;;;;;;;9.83;4.60;;;6.30;15.90;;;;;;5013616;28;20223;-61
2021/10/25 07:23:33;;;;;;;6.70;4.27;;;6.30;1.00;;;;;;5013385;28;20214;-63
2021/10/25 08:04:52;;;;;;;7.40;3.20;;;7.70;19.50;;;;;;4979765;28;20210;-60
2021/10/25 08:07:26;;;;;;;5.57;3.33;;;7.90;1.00;;;;;;5012516;28;20604;-62
2021/10/25 08:09:54;;;;;;;4.33;3.03;;;8.00;1.00;;;;;;5012863;28;20293;-63
2021/10/25 08:12:24;;;;;;;8.17;3.63;;;8.10;1.00;;;;;;5012275;28;20285;-64
2021/10/25 08:14:55;;;;;;;5.53;3.00;;;8.20;1.00;;;;;;5012370;28;20207;-63
2021/10/25 08:17:22;;;;;;;6.00;3.60;;;8.40;1.00;;;;;;5012257;28;20199;-64
2021/10/25 08:19:52;;;;;;;6.17;3.17;;;8.50;1.00;;;;;;5012529;28;20233;-61
2021/10/25 08:22:19;;;;;;;5.23;3.30;;;8.60;1.00;;;;;;5012216;28;20227;-60
2021/10/25 08:24:47;;;;;;;4.80;3.10;;;8.70;1.00;;;;;;5012408;28;20207;-62
2021/10/25 08:27:16;;;;;;;6.90;3.30;;;8.80;1.00;;;;;;5011442;28;20218;-63
2021/10/25 08:29:45;;;;;;;6.10;3.37;;;8.90;1.00;;;;;;5011791;28;20211;-62
2021/10/25 08:32:26;;;;;;;4.63;3.37;;;9.10;1.00;;;;;;5012310;28;20229;-63
2021/10/25 08:35:04;;;;;;;6.10;3.37;;;9.20;1.00;;;;;;5011892;28;20210;-62
2021/10/25 08:40:15;;;;;;;7.73;3.27;;;9.50;1.00;;;;;;5011921;28;20330;-62
2021/10/25 08:42:42;;;;;;;4.10;2.87;;;9.60;1.00;;;;;;5011847;28;20241;-61
2021/10/25 08:45:13;;;;;;;6.37;2.70;;;9.80;1.00;;;;;;5010841;28;20742;-65
2021/10/25 08:47:43;;;;;;;4.77;2.70;;;9.90;1.00;;;;;;5011623;28;20273;-62
2021/10/25 08:50:14;;;;;;;5.20;2.77;;;10.10;1.00;;;;;;5012181;28;20217;-61
2021/10/25 08:52:42;;;;;;;6.93;2.90;;;10.20;1.00;;;;;;5011608;28;20238;-62
2021/10/25 08:55:12;;;;;;;4.40;2.80;;;10.30;1.00;;;;;;5011536;28;20214;-65
2021/10/25 08:57:40;;;;;;;8.93;2.90;;;10.40;1.00;;;;;;5011979;28;20762;-65
2021/10/25 09:00:09;;;;;;;7.23;3.00;;;10.50;1.00;;;;;;5011702;28;20813;-63
2021/10/25 09:02:36;;;;;;;4.70;3.07;;;10.60;1.00;;;;;;5011909;28;20325;-64
2021/10/25 09:05:07;;;;;;;5.27;3.20;;;10.80;1.00;;;;;;5011199;28;20214;-64
2021/10/25 09:07:49;;;;;;;4.60;2.70;;;10.90;1.00;;;;;;5011594;28;20262;-64
2021/10/25 09:10:23;;;;;;;4.67;2.47;;;11.00;1.00;;;;;;5011506;28;20743;-64
2021/10/25 09:12:53;;;;;;;5.37;2.93;;;11.10;1.00;;;;;;5011895;28;20226;-64
2021/10/25 09:15:20;;;;;;;4.73;3.17;;;11.20;1.00;;;;;;5011428;28;20242;-64
2021/10/25 09:17:47;;;;;;;6.63;3.10;;;11.40;1.00;;;;;;5011269;28;20268;-62
2021/10/25 09:20:17;;;;;;;8.03;2.93;;;11.40;1.00;;;;;;5011701;28;20218;-62
2021/10/25 09:22:46;;;;;;;3.50;2.50;;;11.50;1.00;;;;;;5011570;28;20231;-62
2021/10/25 09:25:13;;;;;;;3.83;2.60;;;11.60;1.00;;;;;;5011332;28;20622;-63
2021/10/25 09:27:42;;;;;;;4.27;3.00;;;11.70;1.00;;;;;;5010992;28;20711;-64
2021/10/25 09:30:13;;;;;;;3.50;2.70;;;11.80;1.00;;;;;;5011062;28;20218;-63
2021/10/25 09:32:42;;;;;;;3.90;2.90;;;11.90;1.00;;;;;;5011415;28;20739;-63
2021/10/25 09:35:17;;;;;;;4.37;2.50;;;11.90;1.00;;;;;;5011323;28;20230;-63
2021/10/25 09:37:52;;;;;;;3.33;2.40;;;12.00;1.00;;;;;;5011112;28;20667;-64
2021/10/25 09:40:22;;;;;;;5.37;3.00;;;12.20;1.00;;;;;;5011281;28;20203;-63
2021/10/25 09:43:00;;;;;;;4.93;2.57;;;12.20;1.00;;;;;;5011095;28;20227;-65
2021/10/25 09:45:54;;;;;;;3.43;2.60;;;12.30;1.00;;;;;;5011063;28;20266;-64
2021/10/25 09:51:05;;;;;;;3.97;2.53;;;12.40;1.00;;;;;;5010996;28;20275;-64
2021/10/25 09:53:36;;;;;;;3.90;2.80;;;12.60;1.00;;;;;;5011337;28;20213;-64
2021/10/25 09:56:04;;;;;;;5.60;2.83;;;12.60;1.00;;;;;;5010854;28;20203;-63
2021/10/25 09:58:43;;;;;;;3.93;2.67;;;12.70;1.00;;;;;;5015029;28;20207;-64
2021/10/25 10:01:11;;;;;;;5.67;2.77;;;12.90;1.00;;;;;;5014977;28;20236;-64
2021/10/25 10:03:38;;;;;;;4.83;2.70;;;13.00;1.00;;;;;;5014544;28;20218;-63
2021/10/25 10:06:05;;;;;;;3.87;2.40;;;13.30;1.00;;;;;;5014422;28;20581;-65
2021/10/25 10:08:31;;;;;;;4.83;2.77;;;13.50;1.00;;;;;;5015035;28;20209;-64
2021/10/25 10:11:00;;;;;;;4.77;2.63;;;13.60;1.00;;;;;;5014867;28;20229;-62
2021/10/25 10:13:27;;;;;;;4.30;2.57;;;13.60;1.00;;;;;;5014905;28;20584;-66
2021/10/25 10:15:58;;;;;;;3.20;2.50;;;13.30;1.00;;;;;;5014452;28;20213;-62
2021/10/25 10:18:26;;;;;;;5.13;2.57;;;13.20;1.00;;;;;;5014880;28;20229;-62
2021/10/25 10:20:58;;;;;;;4.27;2.77;;;13.20;1.00;;;;;;5014375;28;20226;-62
2021/10/25 10:23:25;;;;;;;4.57;2.60;;;13.10;1.00;;;;;;5014963;28;20214;-63
2021/10/25 10:25:54;;;;;;;4.37;2.60;;;13.10;1.00;;;;;;5014083;28;20973;-64
2021/10/25 10:28:38;;;;;;;5.33;2.77;;;13.10;1.00;;;;;;5014390;28;20264;-64
2021/10/25 10:31:09;;;;;;;4.93;2.57;;;13.10;1.00;;;;;;5014224;28;20723;-61
2021/10/25 10:33:39;;;;;;;3.53;2.50;;;13.00;1.00;;;;;;5014487;28;20220;-61
2021/10/25 10:36:14;;;;;;;4.37;2.70;;;12.90;1.00;;;;;;5013743;28;20211;-61
2021/10/25 10:38:47;;;;;;;5.03;2.53;;;13.10;1.00;;;;;;5013996;28;20207;-62
2021/10/25 10:41:16;;;;;;;4.37;2.30;;;13.20;1.00;;;;;;5014378;28;20326;-61
2021/10/25 10:43:57;;;;;;;7.73;2.70;;;13.30;1.00;;;;;;5013770;28;20670;-61
2021/10/25 10:46:25;;;;;;;5.97;2.37;;;13.30;1.00;;;;;;5013675;28;20321;-61
2021/10/25 10:48:55;;;;;;;7.00;2.70;;;13.30;1.00;;;;;;5014101;28;20301;-63
2021/10/25 10:51:27;;;;;;;5.97;2.70;;;13.50;1.00;;;;;;5013951;28;20281;-62
2021/10/25 10:54:04;;;;;;;3.73;2.40;;;13.60;1.00;;;;;;5014041;28;20640;-63
2021/10/25 10:56:36;;;;;;;4.00;2.80;;;13.60;1.00;;;;;;5013639;28;20206;-62
2021/10/25 10:59:19;;;;;;;3.53;2.20;;;13.60;1.00;;;;;;5013969;28;20209;-60
2021/10/25 11:01:55;;;;;;;7.60;2.63;;;13.50;1.00;;;;;;5013763;28;20229;-59
2021/10/25 11:04:30;;;;;;;5.53;2.90;;;13.60;1.00;;;;;;5013922;28;20211;-58
2021/10/25 11:07:01;;;;;;;3.47;2.20;;;13.70;1.00;;;;;;5013234;28;20703;-61
2021/10/25 11:09:32;;;;;;;7.30;3.40;;;13.70;1.00;;;;;;5013014;28;20211;-61
2021/10/25 11:12:04;;;;;;;6.27;2.57;;;13.80;1.00;;;;;;5013370;28;20266;-62
2021/10/25 11:14:35;;;;;;;5.37;2.23;;;13.90;1.00;;;;;;5013404;28;20214;-65
2021/10/25 11:17:16;;;;;;;3.77;2.33;;;14.00;1.00;;;;;;5013162;28;20640;-62
2021/10/25 11:19:47;;;;;;;5.60;2.80;;;14.10;1.00;;;;;;5013434;28;20297;-63
2021/10/25 11:22:25;;;;;;;8.03;2.57;;;14.10;1.00;;;;;;5012999;28;20918;-62
2021/10/25 11:24:54;;;;;;;3.70;2.40;;;14.00;1.00;;;;;;5013116;28;20305;-64
2021/10/25 11:27:29;;;;;;;6.13;2.70;;;14.00;1.00;;;;;;5013464;28;20250;-64
2021/10/25 11:30:09;;;;;;;4.40;2.40;;;14.10;1.00;;;;;;5013433;28;20301;-65
2021/10/25 11:32:37;;;;;;;3.63;2.50;;;14.10;1.00;;;;;;5013342;28;20230;-64
2021/10/25 11:35:06;;;;;;;6.00;2.53;;;14.00;1.00;;;;;;5012582;28;20249;-63
2021/10/25 11:37:33;;;;;;;3.57;2.40;;;14.00;1.00;;;;;;5013267;28;20199;-66
2021/10/25 11:40:04;;;;;;;6.30;2.70;;;14.20;1.00;;;;;;5013138;28;20667;-65
2021/10/25 11:42:32;;;;;;;4.60;2.67;;;14.20;1.00;;;;;;5013267;28;20250;-63
2021/10/25 11:45:00;;;;;;;3.97;2.67;;;14.20;1.00;;;;;;5012720;28;20214;-62
2021/10/25 11:47:32;;;;;;;8.67;2.80;;;14.10;1.00;;;;;;5013166;28;20235;-64
2021/10/25 11:50:00;;;;;;;4.57;2.20;;;14.10;1.00;;;;;;5012855;28;20215;-64
2021/10/25 11:52:27;;;;;;;5.30;2.30;;;14.10;1.00;;;;;;5012667;28;20719;-63
2021/10/25 11:54:55;;;;;;;4.40;2.60;;;14.20;1.00;;;;;;5012475;28;20203;-64
2021/10/25 11:57:23;;;;;;;4.00;2.47;;;14.30;1.00;;;;;;5012442;28;20206;-61
2021/10/25 11:59:58;;;;;;;3.47;2.13;;;14.20;1.00;;;;;;5012640;28;20284;-61
2021/10/25 12:02:26;;;;;;;5.83;2.60;;;14.30;1.00;;;;;;5012258;28;20242;-61
2021/10/25 12:04:54;;;;;;;9.80;2.93;;;14.30;1.00;;;;;;5012455;28;20211;-62
2021/10/25 12:07:20;;;;;;;3.53;2.30;;;14.20;1.00;;;;;;5012495;28;20227;-62
2021/10/25 12:09:47;;;;;;;6.77;2.50;;;14.30;1.00;;;;;;5012618;28;20289;-64
2021/10/25 12:12:15;;;;;;;6.33;2.70;;;14.40;1.00;;;;;;5012989;28;20231;-62
2021/10/25 12:14:44;;;;;;;7.83;2.30;;;14.70;1.00;;;;;;5011796;28;20207;-61
2021/10/25 12:17:15;;;;;;;4.63;2.50;;;14.80;1.00;;;;;;5012304;28;20210;-62
2021/10/25 12:19:43;;;;;;;6.13;2.60;;;15.00;1.00;;;;;;5012710;28;20207;-62
2021/10/25 12:22:15;;;;;;;3.50;2.10;;;15.10;1.00;;;;;;5012825;28;20231;-62
2021/10/25 12:24:45;;;;;;;6.17;2.73;;;15.20;1.00;;;;;;5012622;28;20211;-62
2021/10/25 12:27:17;;;;;;;4.03;2.60;;;15.00;1.00;;;;;;5012561;28;20223;-62
2021/10/25 12:29:45;;;;;;;6.00;3.20;;;14.90;1.00;;;;;;5013060;28;20211;-63
2021/10/25 12:32:15;;;;;;;4.40;2.03;;;14.90;1.00;;;;;;5012165;28;20233;-62
2021/10/25 12:34:53;;;;;;;4.57;2.30;;;14.70;1.00;;;;;;5012184;28;20211;-62
2021/10/25 12:37:23;;;;;;;3.10;2.03;;;14.80;1.00;;;;;;5012498;28;20214;-63
2021/10/25 12:39:50;;;;;;;6.67;2.80;;;14.70;1.00;;;;;;5012177;28;20657;-63
2021/10/25 12:42:17;;;;;;;4.43;2.47;;;14.80;1.00;;;;;;5012284;28;20281;-63
2021/10/25 12:44:48;;;;;;;4.03;2.57;;;14.80;1.00;;;;;;5011775;28;20628;-63
2021/10/25 12:47:16;;;;;;;5.67;2.83;;;14.80;1.00;;;;;;5011867;28;20254;-64
2021/10/25 12:49:48;;;;;;;4.00;2.47;;;14.90;1.00;;;;;;5011873;28;20233;-64
2021/10/25 12:52:16;;;;;;;6.37;3.00;;;14.80;1.00;;;;;;5011425;28;20237;-63
2021/10/25 12:54:44;;;;;;;8.60;2.63;;;14.90;1.00;;;;;;5011827;28;20210;-63
2021/10/25 12:57:19;;;;;;;4.47;2.47;;;14.80;1.00;;;;;;5011993;28;20226;-65
2021/10/25 12:59:57;;;;;;;5.47;3.13;;;14.70;1.00;;;;;;5011972;28;20202;-64
2021/10/25 13:02:25;;;;;;;4.27;2.40;;;14.60;1.00;;;;;;5011735;28;20239;-65
2021/10/25 13:04:52;;;;;;;4.67;2.67;;;14.50;1.00;;;;;;5011545;28;20536;-64
2021/10/25 13:07:20;;;;;;;6.30;2.80;;;14.50;1.00;;;;;;5011280;28;20703;-62
2021/10/25 13:09:53;;;;;;;3.53;2.63;;;14.50;1.00;;;;;;5012192;28;20207;-63
2021/10/25 13:12:21;;;;;;;2.90;2.37;;;14.70;1.00;;;;;;5011698;28;20222;-63
2021/10/25 13:14:49;;;;;;;5.60;2.37;;;14.80;1.00;;;;;;5011489;28;20269;-62
2021/10/25 13:17:18;;;;;;;2.90;2.30;;;14.80;1.00;;;;;;5011131;28;20631;-64
2021/10/25 13:19:44;;;;;;;4.80;2.57;;;14.90;1.00;;;;;;5011648;28;20238;-62
2021/10/25 13:22:12;;;;;;;3.93;2.10;;;14.90;1.00;;;;;;5011419;28;20246;-62
2021/10/25 13:24:38;;;;;;;4.50;2.30;;;14.80;1.00;;;;;;5011155;28;20627;-61
2021/10/25 13:27:07;;;;;;;7.00;3.00;;;14.50;1.00;;;;;;5011221;28;20632;-61
2021/10/25 13:29:34;;;;;;;3.57;2.43;;;14.30;1.00;;;;;;5011261;28;20284;-60
2021/10/25 13:32:01;;;;;;;4.73;2.97;;;14.40;1.00;;;;;;5012938;28;20925;-60
2021/10/25 13:34:27;;;;;;;5.20;2.43;;;14.40;1.00;;;;;;5015736;28;20627;-64
2021/10/25 13:36:54;;;;;;;6.70;2.97;;;14.40;1.00;;;;;;5015047;28;20273;-63
2021/10/25 13:39:21;;;;;;;6.17;2.93;;;14.40;1.00;;;;;;5015219;28;20576;-63
2021/10/25 13:41:48;;;;;;;5.57;2.90;;;14.50;1.00;;;;;;5015176;28;20231;-63
2021/10/25 13:44:16;;;;;;;3.93;2.60;;;14.50;1.00;;;;;;5015275;28;20203;-65
2021/10/25 13:46:42;;;;;;;4.47;2.80;;;14.50;1.00;;;;;;5014229;28;20667;-65
2021/10/25 13:49:09;;;;;;;5.63;2.73;;;14.50;1.00;;;;;;5015605;28;20230;-65
2021/10/25 13:51:36;;;;;;;7.03;2.97;;;14.50;1.00;;;;;;5015488;28;20226;-64
2021/10/25 13:54:04;;;;;;;4.43;2.77;;;14.30;1.00;;;;;;5015459;28;20206;-62
2021/10/25 13:56:30;;;;;;;5.00;3.07;;;14.40;1.00;;;;;;5015052;28;20582;-65
2021/10/25 13:58:57;;;;;;;3.80;2.87;;;14.40;1.00;;;;;;5014913;28;20214;-65
2021/10/25 14:01:25;;;;;;;7.50;3.33;;;14.30;1.00;;;;;;5015405;28;20610;-65
2021/10/25 14:03:52;;;;;;;6.37;2.87;;;14.30;1.00;;;;;;5015211;28;20219;-66
2021/10/25 14:06:21;;;;;;;6.67;3.07;;;14.30;1.00;;;;;;5014480;28;20207;-63
2021/10/25 14:08:49;;;;;;;6.27;2.80;;;14.30;1.00;;;;;;5015162;28;20644;-65
2021/10/25 14:11:16;;;;;;;7.90;3.07;;;14.40;1.00;;;;;;5014829;28;20703;-64
2021/10/25 14:13:51;;;;;;;3.97;2.77;;;14.30;1.00;;;;;;5015180;28;20211;-67
2021/10/25 14:16:33;;;;;;;4.93;3.10;;;14.20;1.00;;;;;;5014562;28;20206;-62
2021/10/25 14:19:02;;;;;;;7.70;3.23;;;14.20;1.00;;;;;;5014985;28;20203;-62